Time;durP1;ratioP1;P1;durP2;ratioP2;P2;SDS_P1;SDS_P2;PMS_P1;PMS_P2;Temp;Humidity;BMP_temperature;BMP_pressure;BME280_temperature;BME280_humidity;BME280_pressure;Samples;Min_cycle;Max_cycle;Signal;HPM_P1;HPM_P2
2023/11/03 00:00:02;;;;;;;8.05;1.85;;;12.80;54.30;;;;;;349848;28;1200;-59
2023/11/03 00:00:13;;;;;;;7.55;1.80;;;12.80;54.10;;;;;;349885;28;1051;-58
2023/11/03 00:00:24;;;;;;;5.32;1.60;;;12.80;54.10;;;;;;349820;28;1054;-58
2023/11/03 00:00:35;;;;;;;6.30;1.87;;;12.80;54.20;;;;;;349840;28;960;-59
2023/11/03 00:00:46;;;;;;;5.75;1.70;;;12.80;54.10;;;;;;349866;28;1042;-58
2023/11/03 00:00:57;;;;;;;6.10;1.73;;;12.80;54.00;;;;;;349791;28;1028;-58
2023/11/03 00:01:08;;;;;;;5.50;1.60;;;12.80;54.10;;;;;;349842;28;1061;-59
2023/11/03 00:01:19;;;;;;;5.00;1.75;;;12.80;54.00;;;;;;349813;28;926;-58
2023/11/03 00:01:30;;;;;;;5.45;1.77;;;12.80;54.40;;;;;;349892;28;1070;-59
2023/11/03 00:01:47;;;;;;;5.72;1.70;;;12.90;54.70;;;;;;349867;28;1087;-59
2023/11/03 00:01:57;;;;;;;5.68;1.70;;;12.90;54.50;;;;;;349846;28;975;-59
2023/11/03 00:02:08;;;;;;;6.28;1.90;;;12.90;53.90;;;;;;349804;28;1012;-58
2023/11/03 00:02:20;;;;;;;7.78;2.00;;;12.80;53.90;;;;;;349859;28;1000;-58
2023/11/03 00:02:31;;;;;;;6.90;1.60;;;12.80;54.10;;;;;;349695;28;1020;-58
2023/11/03 00:02:43;;;;;;;6.03;1.38;;;12.80;54.10;;;;;;349775;28;1051;-58
2023/11/03 00:02:57;;;;;;;5.53;1.65;;;12.80;54.20;;;;;;349783;28;944;-59
2023/11/03 00:03:08;;;;;;;6.20;1.95;;;12.80;54.50;;;;;;349742;28;944;-59
2023/11/03 00:03:19;;;;;;;6.07;2.05;;;12.80;54.70;;;;;;349695;28;1092;-59
2023/11/03 00:03:32;;;;;;;6.35;1.77;;;12.70;54.80;;;;;;349733;28;1866;-58
2023/11/03 00:03:43;;;;;;;5.10;1.77;;;12.80;54.90;;;;;;349714;28;972;-59
2023/11/03 00:03:54;;;;;;;4.88;1.73;;;12.70;54.70;;;;;;349664;28;1849;-59
2023/11/03 00:04:08;;;;;;;4.97;1.65;;;12.80;54.60;;;;;;349737;28;1011;-59
2023/11/03 00:04:19;;;;;;;5.57;1.75;;;12.70;54.40;;;;;;349728;28;1050;-59
2023/11/03 00:04:30;;;;;;;6.07;1.80;;;12.80;54.40;;;;;;349856;28;949;-59
2023/11/03 00:04:40;;;;;;;5.90;1.60;;;12.70;54.30;;;;;;349858;28;1023;-60
2023/11/03 00:04:52;;;;;;;5.78;1.70;;;12.80;54.30;;;;;;349763;28;1138;-60
2023/11/03 00:05:08;;;;;;;5.03;1.80;;;12.80;54.50;;;;;;349824;28;1177;-59
2023/11/03 00:05:21;;;;;;;5.70;1.88;;;12.80;54.40;;;;;;349807;28;1043;-58
2023/11/03 00:05:32;;;;;;;6.22;1.85;;;12.80;54.70;;;;;;349860;28;1126;-59
2023/11/03 00:05:43;;;;;;;5.57;1.80;;;12.80;54.80;;;;;;349817;28;1098;-59
2023/11/03 00:05:55;;;;;;;4.80;1.65;;;12.80;55.30;;;;;;349884;28;995;-60
2023/11/03 00:06:06;;;;;;;4.15;1.60;;;12.80;55.20;;;;;;349783;28;1095;-59
2023/11/03 00:06:17;;;;;;;4.97;1.80;;;12.80;55.10;;;;;;349886;28;900;-59
2023/11/03 00:06:28;;;;;;;6.82;1.90;;;12.80;54.80;;;;;;349842;28;1070;-59
2023/11/03 00:06:45;;;;;;;6.68;1.85;;;12.80;54.60;;;;;;349822;28;1134;-59
2023/11/03 00:06:56;;;;;;;5.47;1.67;;;12.80;54.40;;;;;;349851;28;975;-59
2023/11/03 00:07:08;;;;;;;5.13;1.80;;;12.80;54.30;;;;;;349829;28;916;-58
2023/11/03 00:07:19;;;;;;;6.47;2.28;;;12.80;54.20;;;;;;349850;28;1847;-59
2023/11/03 00:07:33;;;;;;;10.73;3.08;;;12.80;54.20;;;;;;349726;28;1086;-59
2023/11/03 00:07:44;;;;;;;10.43;2.95;;;12.80;54.20;;;;;;349840;28;975;-61
2023/11/03 00:07:55;;;;;;;6.80;2.42;;;12.80;54.00;;;;;;349781;28;980;-59
2023/11/03 00:08:05;;;;;;;5.78;2.15;;;12.80;54.10;;;;;;349871;28;916;-59
2023/11/03 00:08:17;;;;;;;6.20;2.20;;;12.90;54.00;;;;;;349811;28;1027;-59
2023/11/03 00:08:28;;;;;;;6.38;2.13;;;12.80;53.80;;;;;;349791;28;1114;-59
2023/11/03 00:08:38;;;;;;;6.60;2.10;;;12.80;54.00;;;;;;349834;28;1265;-59
2023/11/03 00:08:49;;;;;;;6.78;2.10;;;12.80;54.10;;;;;;349883;28;912;-60
2023/11/03 00:09:00;;;;;;;6.65;1.95;;;12.80;54.10;;;;;;349841;28;991;-59
2023/11/03 00:09:15;;;;;;;6.50;1.87;;;12.80;54.00;;;;;;349870;28;1102;-58
2023/11/03 00:09:25;;;;;;;6.68;1.88;;;12.80;53.90;;;;;;349744;28;1927;-60
2023/11/03 00:09:37;;;;;;;6.10;1.80;;;12.80;53.80;;;;;;349888;28;876;-58
2023/11/03 00:09:48;;;;;;;4.97;1.70;;;12.80;53.80;;;;;;349842;28;1261;-58
2023/11/03 00:10:00;;;;;;;5.82;1.80;;;12.80;53.80;;;;;;349787;28;1039;-58
2023/11/03 00:10:11;;;;;;;7.25;1.88;;;12.90;53.70;;;;;;349758;28;1023;-60
2023/11/03 00:10:22;;;;;;;7.50;1.80;;;12.90;53.80;;;;;;349792;28;1118;-59
2023/11/03 00:10:32;;;;;;;7.22;1.88;;;12.80;54.00;;;;;;349787;28;1146;-59
2023/11/03 00:10:43;;;;;;;7.93;2.00;;;12.90;54.00;;;;;;349832;28;1158;-59
2023/11/03 00:10:55;;;;;;;8.52;2.10;;;12.80;53.80;;;;;;349759;28;1118;-59
2023/11/03 00:11:05;;;;;;;7.97;2.10;;;12.90;53.80;;;;;;349764;28;1189;-59
2023/11/03 00:11:16;;;;;;;6.73;2.03;;;12.80;53.90;;;;;;349874;28;1046;-60
2023/11/03 00:11:27;;;;;;;5.65;2.03;;;12.90;53.80;;;;;;349895;28;857;-59
2023/11/03 00:11:38;;;;;;;5.85;1.98;;;12.90;53.70;;;;;;349816;28;1020;-59
2023/11/03 00:11:48;;;;;;;6.45;1.80;;;12.90;53.70;;;;;;349799;28;1290;-59
2023/11/03 00:12:00;;;;;;;7.32;1.83;;;12.80;53.70;;;;;;349808;28;1083;-59
2023/11/03 00:12:11;;;;;;;7.95;1.95;;;12.80;53.80;;;;;;349746;28;1185;-59
2023/11/03 00:12:24;;;;;;;6.50;1.65;;;12.90;53.90;;;;;;349854;28;1219;-59
2023/11/03 00:12:36;;;;;;;4.93;1.30;;;12.90;54.00;;;;;;349762;28;1082;-59
2023/11/03 00:12:47;;;;;;;4.78;1.55;;;12.90;54.00;;;;;;349777;28;1098;-60
2023/11/03 00:12:59;;;;;;;5.53;1.90;;;12.90;54.00;;;;;;349748;28;929;-60
2023/11/03 00:13:10;;;;;;;6.38;2.25;;;12.90;53.90;;;;;;349855;28;1367;-58
2023/11/03 00:13:22;;;;;;;6.35;2.20;;;12.90;53.90;;;;;;349785;28;1177;-59
2023/11/03 00:13:34;;;;;;;5.78;2.10;;;12.90;53.80;;;;;;349844;28;1373;-59
2023/11/03 00:13:45;;;;;;;5.43;1.88;;;12.90;53.80;;;;;;349828;28;939;-59
2023/11/03 00:13:56;;;;;;;5.80;1.95;;;12.90;54.20;;;;;;349830;28;1466;-59
2023/11/03 00:14:07;;;;;;;5.55;1.92;;;12.90;54.50;;;;;;349806;28;1006;-59
2023/11/03 00:14:18;;;;;;;5.75;2.13;;;13.00;54.30;;;;;;349816;28;1102;-59
2023/11/03 00:14:29;;;;;;;6.03;2.20;;;12.90;54.10;;;;;;349837;28;1146;-60
2023/11/03 00:14:40;;;;;;;6.57;2.15;;;13.00;54.00;;;;;;349867;28;1031;-58
2023/11/03 00:14:51;;;;;;;7.90;2.08;;;12.90;54.00;;;;;;349867;28;821;-59
2023/11/03 00:15:02;;;;;;;7.45;1.75;;;12.90;54.50;;;;;;349709;28;1558;-59
2023/11/03 00:15:13;;;;;;;7.35;1.60;;;12.90;54.80;;;;;;349783;28;1956;-58
2023/11/03 00:15:23;;;;;;;5.70;1.75;;;13.00;54.60;;;;;;349687;28;1233;-59
2023/11/03 00:15:34;;;;;;;5.40;1.80;;;13.00;54.30;;;;;;349896;28;848;-59
2023/11/03 00:15:45;;;;;;;5.10;1.83;;;12.90;54.10;;;;;;349745;28;1078;-59
2023/11/03 00:15:55;;;;;;;5.55;1.83;;;12.90;53.90;;;;;;349843;28;1137;-59
2023/11/03 00:16:08;;;;;;;5.60;1.88;;;13.00;53.80;;;;;;349811;28;1500;-59
2023/11/03 00:16:19;;;;;;;5.25;1.80;;;13.00;53.90;;;;;;349849;28;1035;-60
2023/11/03 00:16:30;;;;;;;5.88;1.95;;;12.90;53.90;;;;;;349766;28;1189;-59
2023/11/03 00:16:40;;;;;;;6.65;1.92;;;13.00;54.10;;;;;;349872;28;861;-59
2023/11/03 00:16:51;;;;;;;7.80;2.00;;;12.90;54.40;;;;;;349867;28;983;-59
2023/11/03 00:17:02;;;;;;;8.52;1.98;;;13.00;54.50;;;;;;349822;28;1498;-59
2023/11/03 00:17:14;;;;;;;8.40;1.90;;;12.90;54.60;;;;;;349851;28;895;-60
2023/11/03 00:17:24;;;;;;;6.07;1.73;;;13.00;55.00;;;;;;349707;28;1524;-59
2023/11/03 00:17:37;;;;;;;4.70;1.63;;;12.90;55.00;;;;;;349902;28;872;-59
2023/11/03 00:17:49;;;;;;;5.20;1.88;;;13.00;54.80;;;;;;349867;28;1023;-59
2023/11/03 00:17:59;;;;;;;7.03;1.90;;;12.90;54.30;;;;;;349875;28;988;-59
2023/11/03 00:18:11;;;;;;;6.97;1.77;;;13.00;54.10;;;;;;349804;28;1019;-59
2023/11/03 00:18:21;;;;;;;8.40;1.80;;;13.00;53.90;;;;;;349779;28;1142;-59
2023/11/03 00:18:32;;;;;;;8.60;2.07;;;13.00;53.90;;;;;;349854;28;944;-59
2023/11/03 00:18:43;;;;;;;9.13;2.10;;;13.00;53.80;;;;;;349801;28;1316;-59
2023/11/03 00:18:57;;;;;;;8.27;2.10;;;13.00;53.70;;;;;;349873;28;999;-59
2023/11/03 00:19:08;;;;;;;6.57;2.00;;;12.90;53.70;;;;;;349815;28;975;-59
2023/11/03 00:19:19;;;;;;;5.80;1.77;;;13.00;53.60;;;;;;349877;28;1032;-58
2023/11/03 00:19:30;;;;;;;7.38;1.80;;;12.90;53.60;;;;;;349785;28;1082;-59
2023/11/03 00:19:42;;;;;;;9.13;1.92;;;13.00;53.70;;;;;;349791;28;1036;-59
2023/11/03 00:19:53;;;;;;;8.68;1.88;;;13.00;53.80;;;;;;349839;28;923;-60
2023/11/03 00:20:06;;;;;;;7.35;1.90;;;12.90;53.80;;;;;;349927;28;893;-58
2023/11/03 00:20:18;;;;;;;5.80;1.80;;;12.90;53.90;;;;;;349653;28;1962;-59
2023/11/03 00:20:28;;;;;;;5.93;1.90;;;13.00;53.90;;;;;;349855;28;832;-58
2023/11/03 00:20:40;;;;;;;4.93;1.80;;;13.00;53.80;;;;;;349854;28;1082;-59
2023/11/03 00:20:51;;;;;;;5.28;1.73;;;12.90;53.80;;;;;;349740;28;1186;-59
2023/11/03 00:21:03;;;;;;;5.18;1.80;;;12.90;54.00;;;;;;349844;28;1090;-59
2023/11/03 00:21:14;;;;;;;5.72;1.90;;;12.90;54.00;;;;;;349808;28;1062;-59
2023/11/03 00:21:26;;;;;;;6.70;1.90;;;12.90;54.30;;;;;;349727;28;1082;-59
2023/11/03 00:21:37;;;;;;;7.90;1.98;;;12.90;54.30;;;;;;349858;28;924;-60
2023/11/03 00:21:47;;;;;;;9.02;2.10;;;12.90;54.30;;;;;;349851;28;971;-59
2023/11/03 00:21:58;;;;;;;7.37;1.80;;;12.80;54.50;;;;;;349725;28;1127;-59
2023/11/03 00:22:10;;;;;;;7.63;1.80;;;12.80;54.60;;;;;;349842;28;1019;-59
2023/11/03 00:22:22;;;;;;;9.27;1.92;;;12.80;54.60;;;;;;349853;28;924;-59
2023/11/03 00:22:32;;;;;;;10.18;2.28;;;12.80;54.40;;;;;;349790;28;878;-60
2023/11/03 00:22:43;;;;;;;8.80;2.10;;;12.80;54.40;;;;;;349822;28;1207;-60
2023/11/03 00:22:54;;;;;;;7.57;2.10;;;12.80;54.30;;;;;;349855;28;1020;-61
2023/11/03 00:23:04;;;;;;;6.93;1.88;;;12.80;54.20;;;;;;349792;28;895;-60
2023/11/03 00:23:16;;;;;;;6.90;1.90;;;12.80;54.40;;;;;;349821;28;987;-60
2023/11/03 00:23:26;;;;;;;7.53;1.77;;;12.80;54.50;;;;;;349803;28;1193;-59
2023/11/03 00:23:37;;;;;;;7.80;1.95;;;12.90;54.40;;;;;;349758;28;1043;-59
2023/11/03 00:23:48;;;;;;;7.33;1.90;;;12.80;54.40;;;;;;349859;28;979;-59
2023/11/03 00:23:59;;;;;;;7.57;1.98;;;12.80;54.40;;;;;;349857;28;1085;-59
2023/11/03 00:24:09;;;;;;;7.85;1.90;;;12.90;54.60;;;;;;349700;28;1419;-59
2023/11/03 00:24:23;;;;;;;7.88;1.88;;;12.90;54.80;;;;;;349857;28;842;-59
2023/11/03 00:24:33;;;;;;;5.85;1.77;;;12.90;55.40;;;;;;349842;28;991;-60
2023/11/03 00:24:44;;;;;;;4.90;1.75;;;12.90;55.80;;;;;;349804;28;1020;-59
2023/11/03 00:24:55;;;;;;;4.85;1.70;;;12.80;55.80;;;;;;349853;28;972;-58
2023/11/03 00:25:13;;;;;;;6.47;1.67;;;12.80;55.40;;;;;;349865;28;824;-59
2023/11/03 00:25:24;;;;;;;7.53;1.80;;;12.80;55.10;;;;;;349770;28;885;-59
2023/11/03 00:25:35;;;;;;;5.68;1.80;;;12.80;54.70;;;;;;349841;28;1059;-59
2023/11/03 00:25:49;;;;;;;5.80;1.80;;;12.80;54.50;;;;;;349855;28;1068;-59
2023/11/03 00:26:00;;;;;;;6.10;1.77;;;12.90;54.40;;;;;;349763;28;1074;-60
2023/11/03 00:26:10;;;;;;;6.78;1.83;;;12.80;54.30;;;;;;349865;28;1098;-59
2023/11/03 00:26:21;;;;;;;7.30;2.00;;;12.90;54.20;;;;;;349789;28;1103;-59
2023/11/03 00:26:32;;;;;;;7.43;2.00;;;12.80;54.30;;;;;;349791;28;1040;-59
2023/11/03 00:26:44;;;;;;;8.07;2.20;;;12.80;54.20;;;;;;349823;28;1087;-59
2023/11/03 00:26:54;;;;;;;6.95;2.20;;;12.80;54.20;;;;;;349781;28;1603;-59
2023/11/03 00:27:05;;;;;;;7.23;1.93;;;12.80;54.30;;;;;;349774;28;1023;-60
2023/11/03 00:27:16;;;;;;;7.97;1.80;;;12.80;54.20;;;;;;349810;28;952;-59
2023/11/03 00:27:27;;;;;;;8.30;1.80;;;12.80;54.50;;;;;;349850;28;1031;-59
2023/11/03 00:27:37;;;;;;;6.47;1.88;;;12.80;54.70;;;;;;349709;28;1277;-60
2023/11/03 00:27:50;;;;;;;7.50;2.05;;;12.80;54.40;;;;;;349879;28;876;-60
2023/11/03 00:28:02;;;;;;;8.73;2.15;;;12.80;54.20;;;;;;349825;28;928;-59
2023/11/03 00:28:15;;;;;;;9.38;2.47;;;12.80;54.20;;;;;;349753;28;1090;-59
2023/11/03 00:28:27;;;;;;;8.15;2.35;;;12.80;54.20;;;;;;349820;28;1224;-59
2023/11/03 00:28:40;;;;;;;9.02;2.33;;;12.80;54.10;;;;;;349832;28;1202;-59
2023/11/03 00:28:51;;;;;;;9.85;2.40;;;12.80;54.00;;;;;;349714;28;1714;-59
2023/11/03 00:29:02;;;;;;;7.43;2.10;;;12.80;53.90;;;;;;349843;28;862;-59
2023/11/03 00:29:15;;;;;;;7.15;1.98;;;12.80;53.90;;;;;;349869;28;885;-59
2023/11/03 00:29:26;;;;;;;6.93;2.10;;;12.80;53.90;;;;;;349857;28;997;-59
2023/11/03 00:29:36;;;;;;;6.90;2.10;;;12.80;54.00;;;;;;349791;28;1069;-59
2023/11/03 00:29:47;;;;;;;6.07;2.00;;;12.80;54.10;;;;;;349851;28;876;-58
2023/11/03 00:29:58;;;;;;;5.85;2.03;;;12.80;54.70;;;;;;349792;28;1445;-59
2023/11/03 00:30:10;;;;;;;5.80;2.13;;;12.80;54.60;;;;;;349841;28;916;-59
2023/11/03 00:30:20;;;;;;;5.72;2.08;;;12.80;54.30;;;;;;349856;28;1074;-60
2023/11/03 00:30:31;;;;;;;7.50;2.15;;;12.80;54.10;;;;;;349731;28;1079;-60
2023/11/03 00:30:42;;;;;;;7.30;2.17;;;12.80;54.10;;;;;;349817;28;1019;-59
2023/11/03 00:30:53;;;;;;;8.82;2.55;;;12.80;54.10;;;;;;349834;28;1023;-59
2023/11/03 00:31:04;;;;;;;8.73;2.50;;;12.80;54.10;;;;;;349770;28;1591;-60
2023/11/03 00:31:18;;;;;;;8.73;2.42;;;12.80;54.30;;;;;;349826;28;1035;-59
2023/11/03 00:31:28;;;;;;;6.10;2.00;;;12.80;54.40;;;;;;349770;28;1032;-59
2023/11/03 00:31:45;;;;;;;5.82;1.92;;;12.80;54.80;;;;;;349851;28;903;-58
2023/11/03 00:31:56;;;;;;;7.20;1.95;;;12.80;54.80;;;;;;349825;28;884;-59
2023/11/03 00:32:07;;;;;;;8.17;2.00;;;12.80;54.60;;;;;;349876;28;928;-59
2023/11/03 00:32:18;;;;;;;7.32;1.95;;;12.80;54.50;;;;;;349693;28;1320;-59
2023/11/03 00:32:29;;;;;;;7.18;2.10;;;12.80;54.40;;;;;;349784;28;1514;-59
2023/11/03 00:32:40;;;;;;;6.38;2.10;;;12.80;54.30;;;;;;349829;28;837;-59
2023/11/03 00:32:51;;;;;;;7.00;1.95;;;12.80;54.40;;;;;;349848;28;951;-59
2023/11/03 00:33:02;;;;;;;7.57;1.88;;;12.90;54.50;;;;;;349812;28;1308;-59
2023/11/03 00:33:14;;;;;;;7.20;1.90;;;12.80;54.50;;;;;;349780;28;1004;-58
2023/11/03 00:33:25;;;;;;;6.22;1.85;;;12.80;54.40;;;;;;349792;28;948;-58
2023/11/03 00:33:36;;;;;;;5.78;2.00;;;12.80;54.30;;;;;;349851;28;1039;-57
2023/11/03 00:33:47;;;;;;;7.18;2.03;;;12.80;54.50;;;;;;349875;28;825;-60
2023/11/03 00:33:57;;;;;;;7.78;1.90;;;12.80;54.40;;;;;;349764;28;883;-60
2023/11/03 00:34:09;;;;;;;9.70;1.80;;;12.80;54.30;;;;;;349824;28;959;-59
2023/11/03 00:34:20;;;;;;;7.97;1.80;;;12.80;54.30;;;;;;349784;28;1119;-59
2023/11/03 00:34:30;;;;;;;8.25;2.00;;;12.90;54.20;;;;;;349834;28;853;-59
2023/11/03 00:34:41;;;;;;;7.03;2.20;;;12.90;54.10;;;;;;349837;28;971;-59
2023/11/03 00:34:52;;;;;;;7.35;2.25;;;12.90;54.30;;;;;;349691;28;1649;-59
2023/11/03 00:35:05;;;;;;;7.35;2.30;;;12.80;54.40;;;;;;349876;28;861;-59
2023/11/03 00:35:16;;;;;;;8.63;2.20;;;12.80;54.30;;;;;;349670;28;1910;-60
2023/11/03 00:35:26;;;;;;;8.07;1.90;;;12.90;54.40;;;;;;349821;28;924;-58
2023/11/03 00:35:37;;;;;;;7.82;1.85;;;12.80;54.30;;;;;;349771;28;1016;-59
2023/11/03 00:35:48;;;;;;;6.25;1.90;;;12.80;54.30;;;;;;349883;28;856;-59
2023/11/03 00:36:02;;;;;;;6.07;1.80;;;12.90;54.40;;;;;;349832;28;975;-58
2023/11/03 00:36:14;;;;;;;6.55;1.80;;;12.90;54.30;;;;;;349838;28;981;-60
2023/11/03 00:36:25;;;;;;;6.93;1.80;;;12.80;54.40;;;;;;349762;28;889;-59
2023/11/03 00:36:38;;;;;;;7.25;1.90;;;12.90;54.40;;;;;;349808;28;1003;-59
2023/11/03 00:36:49;;;;;;;7.07;1.90;;;12.90;54.60;;;;;;349768;28;952;-58
2023/11/03 00:36:59;;;;;;;8.05;2.08;;;12.90;54.60;;;;;;349840;28;1038;-59
2023/11/03 00:37:10;;;;;;;7.70;2.10;;;12.90;54.50;;;;;;349738;28;936;-60
2023/11/03 00:37:21;;;;;;;7.53;2.17;;;12.90;54.60;;;;;;349754;28;1176;-60
2023/11/03 00:37:31;;;;;;;7.20;2.05;;;12.90;54.40;;;;;;349852;28;861;-59
2023/11/03 00:37:44;;;;;;;7.53;1.97;;;12.90;54.30;;;;;;349841;28;864;-59
2023/11/03 00:37:56;;;;;;;8.10;2.20;;;12.90;54.20;;;;;;349722;28;1106;-58
2023/11/03 00:38:07;;;;;;;6.93;2.22;;;12.90;54.00;;;;;;349737;28;1201;-59
2023/11/03 00:38:18;;;;;;;6.68;2.08;;;12.90;53.80;;;;;;349806;28;864;-58
2023/11/03 00:38:29;;;;;;;6.03;1.98;;;12.90;53.70;;;;;;349857;28;908;-59
2023/11/03 00:38:42;;;;;;;7.10;2.20;;;12.90;54.00;;;;;;349737;28;1003;-59
2023/11/03 00:38:53;;;;;;;7.13;2.17;;;12.90;54.00;;;;;;349815;28;972;-58
2023/11/03 00:39:04;;;;;;;7.38;2.20;;;12.90;54.10;;;;;;349782;28;1138;-59
2023/11/03 00:39:18;;;;;;;9.18;2.60;;;12.90;54.20;;;;;;349801;28;1034;-59
2023/11/03 00:39:29;;;;;;;11.54;3.02;;;12.90;54.50;;;;;;349714;28;999;-59
2023/11/03 00:39:40;;;;;;;11.17;3.00;;;12.90;54.50;;;;;;349851;28;1094;-59
2023/11/03 00:39:51;;;;;;;9.73;2.92;;;12.90;54.50;;;;;;349784;28;988;-59
2023/11/03 00:40:04;;;;;;;7.72;2.85;;;12.90;54.50;;;;;;349814;28;1211;-59
2023/11/03 00:40:16;;;;;;;6.95;2.50;;;12.90;54.50;;;;;;349735;28;1186;-59
2023/11/03 00:40:26;;;;;;;7.32;2.28;;;12.90;54.50;;;;;;349843;28;1011;-58
2023/11/03 00:40:38;;;;;;;8.63;2.20;;;12.90;54.50;;;;;;349799;28;1310;-58
2023/11/03 00:40:49;;;;;;;8.50;2.05;;;12.90;54.20;;;;;;349843;28;911;-58
2023/11/03 00:40:59;;;;;;;8.70;1.95;;;12.90;54.10;;;;;;349723;28;896;-57
2023/11/03 00:41:14;;;;;;;7.00;1.80;;;12.90;54.00;;;;;;349817;28;987;-59
2023/11/03 00:41:26;;;;;;;5.75;1.98;;;12.90;54.20;;;;;;349811;28;889;-58
2023/11/03 00:41:36;;;;;;;6.68;2.00;;;12.90;54.40;;;;;;349792;28;1039;-58
2023/11/03 00:41:50;;;;;;;7.40;1.93;;;12.90;54.40;;;;;;349744;28;1468;-59
2023/11/03 00:42:03;;;;;;;7.70;1.83;;;12.90;54.30;;;;;;349791;28;1066;-58
2023/11/03 00:42:14;;;;;;;8.82;1.98;;;12.90;54.30;;;;;;349814;28;1075;-58
2023/11/03 00:42:25;;;;;;;9.13;2.33;;;12.90;54.30;;;;;;349828;28;888;-59
2023/11/03 00:42:36;;;;;;;8.98;2.28;;;12.90;54.10;;;;;;349731;28;1011;-59
2023/11/03 00:42:46;;;;;;;7.57;2.03;;;12.90;53.90;;;;;;349847;28;928;-59
2023/11/03 00:43:00;;;;;;;8.10;2.00;;;12.90;54.00;;;;;;349772;28;1039;-59
2023/11/03 00:43:12;;;;;;;7.75;2.00;;;12.90;54.20;;;;;;349802;28;1027;-59
2023/11/03 00:43:23;;;;;;;8.07;2.05;;;13.00;54.50;;;;;;349700;28;1090;-58
2023/11/03 00:43:34;;;;;;;6.15;1.85;;;13.00;54.50;;;;;;349863;28;980;-59
2023/11/03 00:43:45;;;;;;;6.13;1.80;;;12.90;54.40;;;;;;349761;28;1529;-59
2023/11/03 00:43:56;;;;;;;7.15;1.90;;;13.00;54.30;;;;;;349752;28;1186;-58
2023/11/03 00:44:08;;;;;;;8.48;2.13;;;13.00;54.10;;;;;;349697;28;1154;-59
2023/11/03 00:44:19;;;;;;;7.65;1.95;;;13.00;54.00;;;;;;349817;28;979;-59
2023/11/03 00:44:32;;;;;;;6.60;1.90;;;13.00;53.80;;;;;;349829;28;996;-59
2023/11/03 00:44:43;;;;;;;5.88;1.90;;;13.00;53.70;;;;;;349837;28;1102;-59
2023/11/03 00:44:54;;;;;;;6.38;2.03;;;13.00;53.80;;;;;;349638;28;1448;-59
2023/11/03 00:45:05;;;;;;;7.18;2.30;;;13.00;53.90;;;;;;349837;28;903;-59
2023/11/03 00:45:16;;;;;;;6.68;2.10;;;13.00;53.80;;;;;;349759;28;1058;-58
2023/11/03 00:45:27;;;;;;;6.63;2.10;;;13.00;53.90;;;;;;349797;28;1365;-59
2023/11/03 00:45:38;;;;;;;6.53;2.10;;;13.00;53.80;;;;;;349768;28;891;-58
2023/11/03 00:45:48;;;;;;;8.00;2.20;;;13.00;53.90;;;;;;349828;28;987;-59
2023/11/03 00:46:00;;;;;;;7.80;2.20;;;13.00;53.90;;;;;;349790;28;1063;-58
2023/11/03 00:46:11;;;;;;;8.48;2.13;;;13.00;54.00;;;;;;349810;28;991;-59
2023/11/03 00:46:22;;;;;;;7.85;2.05;;;13.00;54.10;;;;;;349714;28;1020;-59
2023/11/03 00:46:35;;;;;;;8.05;2.00;;;13.00;54.10;;;;;;349809;28;964;-59
2023/11/03 00:46:47;;;;;;;10.07;1.92;;;13.00;54.30;;;;;;349811;28;1004;-59
2023/11/03 00:46:58;;;;;;;9.98;1.80;;;13.00;54.30;;;;;;349798;28;952;-58
2023/11/03 00:47:08;;;;;;;8.07;1.60;;;13.00;54.10;;;;;;349714;28;1063;-58
2023/11/03 00:47:19;;;;;;;6.65;1.75;;;13.00;54.00;;;;;;349543;28;1477;-59
2023/11/03 00:47:30;;;;;;;5.90;1.80;;;13.00;54.10;;;;;;349584;28;825;-59
2023/11/03 00:47:41;;;;;;;6.43;1.70;;;13.00;54.20;;;;;;349503;28;1075;-59
2023/11/03 00:47:53;;;;;;;7.00;1.50;;;13.10;54.40;;;;;;349487;28;1220;-59
2023/11/03 00:48:05;;;;;;;7.85;1.70;;;13.00;54.00;;;;;;349635;28;1004;-59
2023/11/03 00:48:17;;;;;;;6.95;1.98;;;13.00;53.90;;;;;;349748;28;1492;-58
2023/11/03 00:48:28;;;;;;;5.38;1.80;;;13.00;54.00;;;;;;349773;28;1050;-59
2023/11/03 00:48:41;;;;;;;6.43;1.90;;;13.00;54.00;;;;;;349744;28;1024;-58
2023/11/03 00:48:54;;;;;;;8.07;1.85;;;12.90;53.80;;;;;;349787;28;960;-59
2023/11/03 00:49:08;;;;;;;8.88;1.90;;;13.00;53.80;;;;;;349719;28;1561;-59
2023/11/03 00:49:19;;;;;;;7.30;1.90;;;13.00;53.80;;;;;;349687;28;995;-58
2023/11/03 00:49:30;;;;;;;7.70;2.15;;;13.00;53.90;;;;;;349780;28;1887;-58
2023/11/03 00:49:41;;;;;;;7.50;2.40;;;13.00;54.00;;;;;;349873;28;928;-58
2023/11/03 00:49:52;;;;;;;6.82;2.25;;;13.00;54.30;;;;;;349877;28;1075;-59
2023/11/03 00:50:03;;;;;;;5.97;2.17;;;13.00;54.20;;;;;;349776;28;968;-59
2023/11/03 00:50:14;;;;;;;5.93;2.08;;;13.00;54.00;;;;;;349843;28;923;-59
2023/11/03 00:50:26;;;;;;;6.03;2.10;;;13.00;53.90;;;;;;349817;28;1015;-59
2023/11/03 00:50:36;;;;;;;7.10;2.00;;;13.00;53.80;;;;;;349810;28;1800;-59
2023/11/03 00:50:47;;;;;;;7.30;2.00;;;13.00;54.00;;;;;;349813;28;914;-59
2023/11/03 00:50:58;;;;;;;6.90;1.83;;;13.00;53.90;;;;;;349847;28;991;-58
2023/11/03 00:51:09;;;;;;;7.10;2.00;;;13.00;53.90;;;;;;349819;28;1011;-59
2023/11/03 00:51:20;;;;;;;6.03;1.88;;;12.90;53.80;;;;;;349769;28;1034;-59
2023/11/03 00:51:31;;;;;;;5.88;1.98;;;13.00;53.70;;;;;;349706;28;1082;-58
2023/11/03 00:51:41;;;;;;;6.70;1.95;;;13.00;53.60;;;;;;349791;28;1393;-59
2023/11/03 00:51:52;;;;;;;8.35;2.28;;;12.90;53.50;;;;;;349764;28;967;-59
2023/11/03 00:52:07;;;;;;;7.78;2.17;;;13.00;53.50;;;;;;349813;28;992;-59
2023/11/03 00:52:18;;;;;;;7.07;2.25;;;13.00;53.50;;;;;;349796;28;1042;-59
2023/11/03 00:52:29;;;;;;;8.98;2.40;;;12.90;53.60;;;;;;349794;28;1003;-60
2023/11/03 00:52:40;;;;;;;8.23;2.08;;;13.00;53.60;;;;;;349760;28;1122;-58
2023/11/03 00:52:51;;;;;;;7.20;1.80;;;13.00;53.70;;;;;;349860;28;960;-59
2023/11/03 00:53:02;;;;;;;6.80;1.70;;;13.00;53.60;;;;;;349734;28;1848;-59
2023/11/03 00:53:12;;;;;;;8.02;1.90;;;13.00;53.60;;;;;;349830;28;952;-60
2023/11/03 00:53:23;;;;;;;8.10;2.00;;;12.90;53.60;;;;;;349811;28;1015;-58
2023/11/03 00:53:37;;;;;;;8.40;2.03;;;12.90;53.60;;;;;;349805;28;1086;-59
2023/11/03 00:53:48;;;;;;;9.43;2.20;;;13.00;53.70;;;;;;349742;28;1064;-59
2023/11/03 00:53:59;;;;;;;10.55;2.53;;;13.00;53.90;;;;;;349863;28;1023;-59
2023/11/03 00:54:10;;;;;;;9.93;2.60;;;13.00;54.00;;;;;;349806;28;991;-59
2023/11/03 00:54:21;;;;;;;8.10;2.47;;;13.00;54.10;;;;;;349778;28;995;-59
2023/11/03 00:54:33;;;;;;;6.55;2.00;;;13.00;54.00;;;;;;349817;28;1058;-59
2023/11/03 00:54:44;;;;;;;7.18;1.90;;;13.00;54.10;;;;;;349733;28;991;-58
2023/11/03 00:54:54;;;;;;;7.32;1.90;;;13.00;54.20;;;;;;349739;28;1459;-59
2023/11/03 00:55:06;;;;;;;6.57;1.98;;;13.00;54.20;;;;;;349791;28;1757;-60
2023/11/03 00:55:17;;;;;;;5.75;2.03;;;13.00;54.40;;;;;;349673;28;1996;-58
2023/11/03 00:55:28;;;;;;;6.37;1.90;;;13.00;54.30;;;;;;349791;28;1158;-58
2023/11/03 00:55:39;;;;;;;7.90;2.10;;;13.00;54.20;;;;;;349739;28;1048;-59
2023/11/03 00:55:49;;;;;;;8.20;2.08;;;13.00;54.30;;;;;;349783;28;1231;-58
2023/11/03 00:56:01;;;;;;;8.50;2.13;;;13.00;54.30;;;;;;349768;28;1464;-58
2023/11/03 00:56:13;;;;;;;7.15;2.08;;;13.00;54.20;;;;;;349837;28;908;-60
2023/11/03 00:56:24;;;;;;;6.28;2.13;;;13.00;54.10;;;;;;349783;28;901;-59
2023/11/03 00:56:35;;;;;;;6.78;2.20;;;13.00;54.00;;;;;;349772;28;890;-58
2023/11/03 00:56:46;;;;;;;6.15;2.10;;;13.00;53.90;;;;;;349778;28;1176;-59
2023/11/03 00:56:56;;;;;;;8.73;2.17;;;13.00;53.90;;;;;;349806;28;1011;-57
2023/11/03 00:57:08;;;;;;;9.13;2.10;;;13.00;53.90;;;;;;349782;28;1087;-60
2023/11/03 00:57:19;;;;;;;8.90;2.22;;;13.00;54.00;;;;;;349754;28;1019;-59
2023/11/03 00:57:30;;;;;;;6.40;2.00;;;13.00;53.90;;;;;;349744;28;1028;-59
2023/11/03 00:57:42;;;;;;;7.03;2.05;;;13.00;53.90;;;;;;349867;28;1057;-59
2023/11/03 00:57:53;;;;;;;8.05;2.20;;;13.00;53.90;;;;;;349775;28;977;-58
2023/11/03 00:58:04;;;;;;;8.93;2.28;;;13.00;53.90;;;;;;349801;28;1003;-61
2023/11/03 00:58:15;;;;;;;8.73;2.30;;;13.00;53.80;;;;;;349749;28;1174;-58
2023/11/03 00:58:26;;;;;;;7.30;2.42;;;13.00;53.80;;;;;;349749;28;871;-60
2023/11/03 00:58:37;;;;;;;7.22;2.47;;;13.00;53.70;;;;;;349745;28;1205;-58
2023/11/03 00:58:49;;;;;;;9.30;2.50;;;13.00;53.90;;;;;;349808;28;1065;-59
2023/11/03 00:59:00;;;;;;;11.15;2.40;;;13.00;54.10;;;;;;349796;28;1074;-58
2023/11/03 00:59:11;;;;;;;11.65;2.33;;;13.00;54.30;;;;;;349804;28;1011;-58
2023/11/03 00:59:22;;;;;;;10.07;2.20;;;13.00;54.30;;;;;;349698;28;1910;-58
2023/11/03 00:59:32;;;;;;;7.88;2.28;;;13.00;54.10;;;;;;349868;28;864;-59
2023/11/03 00:59:44;;;;;;;7.20;2.03;;;13.00;54.00;;;;;;349805;28;1015;-59
2023/11/03 00:59:55;;;;;;;7.63;2.05;;;13.00;54.10;;;;;;349861;28;931;-57
2023/11/03 01:00:12;;;;;;;7.85;1.92;;;13.00;54.20;;;;;;349678;28;979;-59
2023/11/03 01:00:25;;;;;;;7.18;2.05;;;13.10;54.20;;;;;;349679;28;1152;-59
2023/11/03 01:00:40;;;;;;;6.95;1.98;;;13.00;54.20;;;;;;349706;28;1121;-59
2023/11/03 01:00:53;;;;;;;8.35;2.08;;;13.10;54.10;;;;;;349757;28;1066;-59
2023/11/03 01:01:07;;;;;;;8.10;2.03;;;13.00;54.20;;;;;;349782;28;987;-64
2023/11/03 01:01:18;;;;;;;7.25;2.05;;;13.00;54.40;;;;;;349773;28;1027;-59